Etusivu
METAR-TAF:

METAR-TAF

Lentoasemat :

Taolagnaro, Madagaskar

Leveyspiiri: 25-02S, Pituuspiiri: 046-57E, korkeus merenpinnasta: 8 m

Tämänhetkinen sää

Tämä raportti tehtiin 47 minuuttia sitten, kello 04.00 UTC
Tuuli 4 kn lännestä/luoteesta
Lämpötila 17°C
Kosteus 88%
Ilmanpaine 1019 hPa
Näkyvyys 10 km tai enemmän
Muutamia pilviä 1600 ft:n korkeudessa
Hajanaisia pilviä 3300 ft:n korkeudessa

METAR: FMSD 160400Z 30004KT 9999 FEW016 SCT033 17/15 Q1019

Aika: 07:47 (04:47 UTC)


TAF: puuttuu

Säähavainnot ja -ennusteet yli 4000 lentoasemalta (METAR- ja TAF-raportit).

Käytössä olevat sääasemat on merkitty karttaan keltaisilla ja punaisilla pisteillä.

Aseta hiiri pisteen päälle nähdäksesi sääaseman nimen.

Klikkaa sitten nähdäksesi säähavainnot ja -ennusteet.

Kartan vaihtaminen: klikkaa mustalla rastilla varustettuja vihreitä pisteitä, niin voit zoomata sisään; viivalla varustettua vihreää pistettä, niin voit zoomata ulos tai vihreitä nuolia, niin pääset viereisille kartoille.


METAR-TAF: